createdAt,value
2022-12-18T00:01:37.975Z,66.92
2022-12-18T00:04:21.015Z,69.37
2022-12-18T00:06:53.984Z,69.85
2022-12-18T00:09:25.573Z,68.74
2022-12-18T00:14:47.350Z,69.20
2022-12-18T00:17:18.914Z,68.71
2022-12-18T00:19:50.468Z,68.17
2022-12-18T00:22:21.983Z,66.94
2022-12-18T00:24:53.545Z,68.18
2022-12-18T00:27:25.271Z,68.44
2022-12-18T00:29:56.850Z,68.52
2022-12-18T00:32:28.380Z,68.33
2022-12-18T00:35:00.232Z,68.61
2022-12-18T00:37:31.820Z,68.74
2022-12-18T00:40:04.455Z,69.03
2022-12-18T00:42:36.042Z,69.18
2022-12-18T00:45:12.632Z,68.22
2022-12-18T00:47:44.826Z,67.67
2022-12-18T00:50:16.549Z,68.12
2022-12-18T00:52:48.888Z,68.51
2022-12-18T00:55:20.538Z,68.41
2022-12-18T00:57:53.213Z,66.17
2022-12-18T01:00:24.811Z,65.13
2022-12-18T01:02:56.708Z,65.43
2022-12-18T01:05:30.004Z,65.20
2022-12-18T01:08:01.598Z,65.35
2022-12-18T01:10:33.219Z,64.50
2022-12-18T01:13:04.830Z,64.24
2022-12-18T01:15:36.647Z,62.49
2022-12-18T01:18:08.360Z,63.39
2022-12-18T01:20:39.955Z,64.00
2022-12-18T01:23:11.562Z,64.85
2022-12-18T01:25:43.168Z,66.62
2022-12-18T01:28:15.153Z,66.38
2022-12-18T01:30:46.830Z,65.76
2022-12-18T01:33:18.399Z,64.76
2022-12-18T01:35:49.961Z,65.23
2022-12-18T01:38:21.527Z,63.45
2022-12-18T01:40:58.844Z,62.62
2022-12-18T01:43:46.980Z,64.02
2022-12-18T01:46:20.777Z,64.08
2022-12-18T01:49:02.081Z,63.86
2022-12-18T01:51:34.144Z,65.87
2022-12-18T01:54:05.700Z,66.01
2022-12-18T01:56:37.770Z,66.19
2022-12-18T01:59:13.100Z,67.48
2022-12-18T02:01:45.264Z,67.25
2022-12-18T02:04:25.704Z,66.65
2022-12-18T02:07:09.293Z,67.20
2022-12-18T02:09:54.780Z,67.16
2022-12-18T02:12:45.706Z,66.20
2022-12-18T02:15:29.219Z,66.23
2022-12-18T02:18:10.552Z,65.79
2022-12-18T02:20:47.593Z,67.64
2022-12-18T02:23:37.763Z,67.41
2022-12-18T02:26:28.483Z,67.39
2022-12-18T02:29:09.140Z,67.09
2022-12-18T02:31:52.454Z,66.92
2022-12-18T02:34:30.886Z,67.06
2022-12-18T02:37:09.465Z,67.44
2022-12-18T02:39:47.576Z,67.14
2022-12-18T02:42:20.847Z,69.49
2022-12-18T02:44:53.464Z,69.27
2022-12-18T02:47:34.374Z,68.95
2022-12-18T02:50:32.403Z,68.46
2022-12-18T02:53:18.366Z,68.82
2022-12-18T02:56:14.665Z,69.49
2022-12-18T02:59:00.109Z,68.36
2022-12-18T03:01:48.687Z,68.45
2022-12-18T03:04:50.433Z,68.63
2022-12-18T03:07:34.189Z,67.58
2022-12-18T03:10:12.449Z,68.52
2022-12-18T03:12:53.614Z,66.74
2022-12-18T03:15:35.054Z,66.16
2022-12-18T03:18:24.010Z,65.97
2022-12-18T03:21:04.592Z,66.50
2022-12-18T03:23:45.127Z,65.89
2022-12-18T03:26:23.667Z,65.48
2022-12-18T03:29:24.088Z,66.30
2022-12-18T03:32:04.129Z,66.31
2022-12-18T03:34:41.900Z,65.44
2022-12-18T03:37:16.335Z,66.40
2022-12-18T03:39:48.004Z,66.51
2022-12-18T03:42:29.548Z,66.40
2022-12-18T03:45:23.169Z,66.10
2022-12-18T03:48:01.485Z,67.35
2022-12-18T03:50:40.561Z,68.06
2022-12-18T03:53:40.551Z,68.45
2022-12-18T03:56:17.173Z,67.33
2022-12-18T03:58:53.557Z,67.01
2022-12-18T04:01:40.815Z,67.44
2022-12-18T04:04:15.337Z,66.74
2022-12-18T04:06:51.275Z,66.63
2022-12-18T04:09:25.364Z,65.91
2022-12-18T04:11:57.926Z,66.29
2022-12-18T04:14:30.186Z,67.84
2022-12-18T04:17:03.538Z,67.85
2022-12-18T04:19:37.803Z,66.82
2022-12-18T04:22:11.340Z,65.95
2022-12-18T04:24:48.182Z,65.86
2022-12-18T04:27:27.984Z,66.58
2022-12-18T04:30:00.100Z,67.53
2022-12-18T04:32:31.867Z,67.26
2022-12-18T04:35:05.965Z,66.74
2022-12-18T04:37:38.169Z,66.46
2022-12-18T04:40:11.387Z,65.27
2022-12-18T04:42:47.407Z,64.99
2022-12-18T04:45:19.018Z,65.08
2022-12-18T04:47:50.581Z,66.62
2022-12-18T04:50:22.209Z,64.90
2022-12-18T04:52:54.202Z,65.52
2022-12-18T04:55:25.962Z,65.41
2022-12-18T04:57:57.493Z,65.99
2022-12-18T05:00:29.048Z,65.42
2022-12-18T05:03:02.251Z,64.31
2022-12-18T05:05:36.384Z,64.01
2022-12-18T05:08:07.986Z,64.53
2022-12-18T05:10:39.492Z,65.75
2022-12-18T05:13:11.357Z,65.27
2022-12-18T05:15:43.029Z,66.06
2022-12-18T05:18:14.645Z,66.74
2022-12-18T05:20:46.156Z,66.05
2022-12-18T05:23:18.144Z,66.83
2022-12-18T05:25:56.497Z,66.26
2022-12-18T05:28:30.352Z,66.42
2022-12-18T05:31:04.484Z,66.88
2022-12-18T05:33:36.973Z,65.54
2022-12-18T05:36:10.278Z,64.52
2022-12-18T05:38:42.235Z,65.80
2022-12-18T05:41:13.849Z,64.95
2022-12-18T05:43:45.409Z,65.35
2022-12-18T05:46:18.370Z,66.94
2022-12-18T05:48:49.937Z,65.84
2022-12-18T05:51:23.107Z,65.96
2022-12-18T05:53:54.646Z,65.74
2022-12-18T05:56:26.478Z,66.22
2022-12-18T05:58:58.033Z,65.12
2022-12-18T06:01:29.611Z,64.14
2022-12-18T06:04:01.236Z,63.82
2022-12-18T06:06:33.426Z,64.66
2022-12-18T06:09:05.392Z,64.63
2022-12-18T06:11:38.408Z,65.62
2022-12-18T06:14:10.815Z,64.00
2022-12-18T06:16:42.401Z,64.17
2022-12-18T06:19:16.796Z,64.62
2022-12-18T06:21:48.426Z,64.34
2022-12-18T06:24:20.010Z,64.56
2022-12-18T06:26:51.629Z,63.08
2022-12-18T06:29:23.207Z,63.47
2022-12-18T06:31:54.785Z,62.65
2022-12-18T06:34:27.056Z,64.27
2022-12-18T06:36:59.000Z,64.50
2022-12-18T06:39:31.401Z,63.68
2022-12-18T06:42:04.459Z,64.33
2022-12-18T06:44:36.047Z,63.52
2022-12-18T06:47:07.559Z,64.00
2022-12-18T06:49:39.136Z,65.54
2022-12-18T06:52:10.786Z,66.63
2022-12-18T06:54:42.293Z,65.36
2022-12-18T06:57:13.819Z,65.73
2022-12-18T06:59:45.353Z,65.21
2022-12-18T07:02:17.002Z,65.58
2022-12-18T07:04:48.644Z,64.83
2022-12-18T07:07:20.451Z,65.69
2022-12-18T07:09:52.356Z,65.06
2022-12-18T07:12:23.969Z,64.52
2022-12-18T07:14:55.642Z,64.07
2022-12-18T07:17:27.287Z,63.34
2022-12-18T07:19:58.843Z,62.82
2022-12-18T07:22:30.844Z,64.35
2022-12-18T07:25:02.431Z,63.01
2022-12-18T07:27:33.992Z,62.99
2022-12-18T07:30:06.550Z,63.89
2022-12-18T07:32:38.151Z,63.67
2022-12-18T07:35:09.687Z,64.95
2022-12-18T07:37:41.206Z,64.07
2022-12-18T07:40:13.154Z,63.97
2022-12-18T07:42:44.854Z,65.39
2022-12-18T07:45:16.539Z,67.88
2022-12-18T07:47:48.068Z,65.48
2022-12-18T07:50:20.147Z,64.86
2022-12-18T07:52:51.822Z,65.82
2022-12-18T07:55:23.394Z,64.36
2022-12-18T07:57:59.400Z,64.49
2022-12-18T08:00:32.397Z,67.00
2022-12-18T08:03:04.141Z,65.94
2022-12-18T08:05:35.735Z,65.39
2022-12-18T08:08:07.355Z,66.92
2022-12-18T08:10:39.371Z,65.52
2022-12-18T08:13:10.899Z,67.23
2022-12-18T08:15:42.493Z,66.46
2022-12-18T08:18:14.576Z,67.12
2022-12-18T08:20:46.260Z,68.47
2022-12-18T08:23:17.946Z,68.55
2022-12-18T08:25:49.608Z,66.97
2022-12-18T08:28:21.117Z,67.17
2022-12-18T08:30:53.616Z,67.21
2022-12-18T08:33:25.418Z,66.85
2022-12-18T08:35:56.999Z,67.29
2022-12-18T08:38:29.212Z,66.55
2022-12-18T08:41:05.168Z,66.88
2022-12-18T08:43:37.014Z,66.15
2022-12-18T08:46:08.920Z,64.59
2022-12-18T08:48:40.505Z,65.66
2022-12-18T08:51:12.130Z,65.54
2022-12-18T08:53:44.670Z,65.48
2022-12-18T08:56:16.911Z,66.75
2022-12-18T08:58:48.495Z,67.20
2022-12-18T09:01:20.707Z,66.25
2022-12-18T09:03:52.357Z,63.92
2022-12-18T09:06:24.422Z,63.07
2022-12-18T09:08:56.034Z,64.06
2022-12-18T09:11:29.843Z,64.49
2022-12-18T09:14:02.458Z,65.88
2022-12-18T09:16:34.457Z,63.34
2022-12-18T09:19:06.575Z,62.48
2022-12-18T09:21:38.226Z,62.65
2022-12-18T09:24:13.719Z,63.48
2022-12-18T09:26:47.331Z,62.91
2022-12-18T09:29:19.270Z,61.71
2022-12-18T09:31:50.846Z,60.75
2022-12-18T09:34:22.849Z,60.75
2022-12-18T09:36:54.419Z,60.68
2022-12-18T09:39:26.026Z,60.42
2022-12-18T09:41:59.689Z,59.50
2022-12-18T09:44:44.505Z,59.55
2022-12-18T09:47:28.500Z,58.96
2022-12-18T09:50:04.896Z,59.13
2022-12-18T09:52:46.072Z,58.76
2022-12-18T09:55:24.598Z,59.20
2022-12-18T09:58:06.731Z,60.13
2022-12-18T10:00:39.298Z,58.66
2022-12-18T10:03:14.093Z,60.03
2022-12-18T10:05:58.069Z,58.35
2022-12-18T10:08:44.632Z,57.47
2022-12-18T10:12:13.908Z,56.49
2022-12-18T10:15:00.738Z,57.07
2022-12-18T10:17:50.357Z,57.00
2022-12-18T10:20:49.700Z,59.87
2022-12-18T10:23:43.649Z,57.34
2022-12-18T10:26:19.623Z,59.21
2022-12-18T10:28:54.549Z,59.96
2022-12-18T10:31:26.691Z,61.57
2022-12-18T10:33:58.287Z,61.29
2022-12-18T10:36:30.232Z,63.69
2022-12-18T10:39:17.608Z,61.27
2022-12-18T10:41:49.368Z,59.69
2022-12-18T10:44:25.359Z,58.42
2022-12-18T10:47:10.110Z,59.41
2022-12-18T10:49:51.268Z,57.02
2022-12-18T10:52:26.029Z,56.30
2022-12-18T10:55:04.814Z,55.15
2022-12-18T10:57:40.034Z,54.70
2022-12-18T11:00:31.612Z,53.42
2022-12-18T11:03:03.438Z,54.24
2022-12-18T11:05:35.641Z,53.89
2022-12-18T11:08:21.604Z,53.22
2022-12-18T11:10:53.183Z,53.04
2022-12-18T11:13:29.953Z,55.41
2022-12-18T11:16:01.868Z,54.99
2022-12-18T11:18:36.444Z,53.88
2022-12-18T11:21:12.725Z,54.66
2022-12-18T11:23:54.842Z,53.97
2022-12-18T11:26:36.116Z,54.38
2022-12-18T11:29:11.671Z,53.53
2022-12-18T11:31:43.291Z,53.50
2022-12-18T11:34:31.352Z,54.74
2022-12-18T11:37:05.304Z,52.87
2022-12-18T11:40:12.103Z,52.68
2022-12-18T11:42:55.499Z,54.97
2022-12-18T11:45:29.380Z,56.30
2022-12-18T11:48:18.876Z,56.30
2022-12-18T11:50:54.232Z,53.68
2022-12-18T11:53:27.762Z,52.83
2022-12-18T11:56:20.537Z,51.55
2022-12-18T11:58:58.853Z,54.73
2022-12-18T12:01:44.688Z,55.83
2022-12-18T12:04:34.985Z,53.45
2022-12-18T12:07:29.319Z,49.57
2022-12-18T12:10:24.512Z,45.76
2022-12-18T12:13:12.921Z,44.11
2022-12-18T12:16:05.145Z,39.96
2022-12-18T12:18:52.100Z,37.29
2022-12-18T12:21:43.779Z,32.45
2022-12-18T12:24:47.900Z,29.83
2022-12-18T12:27:53.557Z,29.11
2022-12-18T12:30:48.668Z,28.06
2022-12-18T12:33:59.413Z,25.59
2022-12-18T12:36:47.697Z,26.28
2022-12-18T12:39:33.544Z,27.93
2022-12-18T12:42:13.430Z,27.48
2022-12-18T12:44:56.267Z,31.56
2022-12-18T12:47:42.956Z,29.04
2022-12-18T12:50:19.448Z,28.03
2022-12-18T12:52:58.183Z,26.34
2022-12-18T12:55:31.146Z,26.87
2022-12-18T12:58:20.065Z,27.16
2022-12-18T13:01:05.312Z,25.56
2022-12-18T13:03:49.946Z,25.09
2022-12-18T13:06:25.434Z,28.06
2022-12-18T13:09:00.269Z,26.47
2022-12-18T13:11:43.272Z,25.35
2022-12-18T13:14:24.498Z,23.22
2022-12-18T13:17:22.499Z,22.80
2022-12-18T13:20:11.069Z,23.00
2022-12-18T13:22:50.296Z,22.53
2022-12-18T13:25:38.932Z,25.21
2022-12-18T13:28:14.652Z,27.84
2022-12-18T13:30:57.428Z,35.35
2022-12-18T13:33:29.228Z,39.63
2022-12-18T13:36:27.675Z,40.62
2022-12-18T13:39:18.431Z,39.85
2022-12-18T13:42:14.811Z,36.02
2022-12-18T13:44:47.976Z,31.45
2022-12-18T13:47:35.649Z,32.05
2022-12-18T13:50:24.671Z,31.36
2022-12-18T13:52:56.373Z,33.41
2022-12-18T13:55:28.078Z,30.83
2022-12-18T13:58:07.209Z,31.98
2022-12-18T14:00:43.593Z,39.34
2022-12-18T14:03:28.689Z,34.66
2022-12-18T14:06:06.980Z,31.02
2022-12-18T14:08:42.709Z,30.50
2022-12-18T14:11:23.830Z,30.76
2022-12-18T14:13:58.244Z,33.14
2022-12-18T14:16:31.138Z,37.04
2022-12-18T14:19:05.206Z,38.14
2022-12-18T14:21:50.881Z,38.37
2022-12-18T14:24:22.957Z,40.50
2022-12-18T14:26:54.551Z,40.99
2022-12-18T14:29:31.514Z,43.05
2022-12-18T14:32:18.125Z,44.38
2022-12-18T14:34:54.644Z,44.30
2022-12-18T14:37:27.780Z,45.19
2022-12-18T14:40:08.745Z,47.20
2022-12-18T14:42:43.009Z,47.71
2022-12-18T14:45:42.181Z,48.73
2022-12-18T14:48:23.675Z,51.36
2022-12-18T14:51:19.691Z,50.26
2022-12-18T14:53:58.584Z,52.34
2022-12-18T14:56:34.300Z,53.17
2022-12-18T14:59:23.848Z,52.92
2022-12-18T15:02:21.084Z,54.49
2022-12-18T15:05:12.734Z,56.81
2022-12-18T15:07:50.845Z,55.65
2022-12-18T15:10:28.624Z,56.35
2022-12-18T15:13:00.117Z,58.21
2022-12-18T15:15:34.996Z,60.45
2022-12-18T15:18:09.810Z,58.80
2022-12-18T15:20:53.153Z,58.88
2022-12-18T15:23:31.774Z,60.38
2022-12-18T15:26:10.072Z,59.59
2022-12-18T15:28:51.859Z,58.56
2022-12-18T15:31:32.026Z,59.06
2022-12-18T15:34:09.357Z,60.64
2022-12-18T15:36:41.268Z,61.32
2022-12-18T15:39:14.248Z,62.00
2022-12-18T15:41:46.146Z,60.80
2022-12-18T15:44:25.623Z,60.78
2022-12-18T15:46:58.110Z,61.97
2022-12-18T15:49:34.929Z,60.35
2022-12-18T15:52:07.155Z,62.83
2022-12-18T15:54:38.849Z,64.39
2022-12-18T15:57:11.778Z,63.15
2022-12-18T15:59:43.405Z,62.31
2022-12-18T16:02:19.299Z,61.60
2022-12-18T16:04:52.941Z,63.70
2022-12-18T16:07:25.077Z,63.97
2022-12-18T16:09:57.249Z,65.41
2022-12-18T16:12:29.087Z,63.03
2022-12-18T16:15:01.373Z,63.44
2022-12-18T16:17:33.356Z,62.59
2022-12-18T16:20:05.694Z,63.58
2022-12-18T16:22:37.343Z,63.09
2022-12-18T16:25:22.939Z,63.98
2022-12-18T16:27:56.155Z,64.44
2022-12-18T16:30:32.737Z,65.05
2022-12-18T16:33:11.403Z,66.39
2022-12-18T16:35:43.234Z,65.91
2022-12-18T16:38:15.011Z,65.68
2022-12-18T16:40:46.635Z,65.14
2022-12-18T16:43:18.367Z,64.30
2022-12-18T16:45:51.427Z,64.25
2022-12-18T16:48:23.708Z,63.28
2022-12-18T16:51:05.085Z,63.13
2022-12-18T16:53:36.688Z,64.05
2022-12-18T16:56:08.262Z,63.91
2022-12-18T16:58:39.852Z,64.84
2022-12-18T17:01:13.282Z,63.76
2022-12-18T17:03:45.346Z,65.35
2022-12-18T17:06:18.961Z,64.58
2022-12-18T17:09:02.099Z,65.06
2022-12-18T17:11:35.109Z,64.41
2022-12-18T17:14:10.250Z,64.47
2022-12-18T17:16:42.737Z,62.90
2022-12-18T17:19:17.303Z,62.14
2022-12-18T17:21:50.629Z,62.21
2022-12-18T17:24:22.341Z,62.96
2022-12-18T17:26:53.945Z,63.43
2022-12-18T17:29:25.569Z,64.19
2022-12-18T17:32:00.324Z,66.50
2022-12-18T17:34:32.199Z,65.67
2022-12-18T17:37:03.739Z,64.90
2022-12-18T17:39:35.361Z,64.96
2022-12-18T17:42:06.922Z,66.44
2022-12-18T17:44:49.756Z,65.14
2022-12-18T17:47:21.370Z,64.32
2022-12-18T17:49:52.972Z,63.37
2022-12-18T17:52:26.265Z,62.94
2022-12-18T17:54:57.945Z,62.44
2022-12-18T17:57:29.525Z,64.56
2022-12-18T18:00:01.094Z,63.57
2022-12-18T18:02:32.779Z,62.78
2022-12-18T18:05:05.482Z,64.10
2022-12-18T18:07:37.056Z,63.96
2022-12-18T18:10:09.045Z,63.04
2022-12-18T18:12:40.601Z,62.85
2022-12-18T18:15:12.212Z,62.82
2022-12-18T18:17:44.707Z,62.73
2022-12-18T18:20:20.815Z,62.22
2022-12-18T18:22:54.250Z,62.70
2022-12-18T18:25:25.852Z,62.60
2022-12-18T18:27:57.438Z,63.29
2022-12-18T18:30:28.989Z,63.40
2022-12-18T18:33:00.767Z,63.32
2022-12-18T18:35:53.456Z,62.96
2022-12-18T18:38:24.070Z,63.12
2022-12-18T18:41:03.893Z,64.95
2022-12-18T18:43:35.521Z,64.43
2022-12-18T18:46:12.365Z,64.40
2022-12-18T18:48:44.129Z,63.79
2022-12-18T18:51:21.547Z,63.70
2022-12-18T18:53:53.821Z,63.93
2022-12-18T18:56:56.586Z,64.48
2022-12-18T18:59:17.825Z,63.98
2022-12-18T19:01:49.888Z,63.32
2022-12-18T19:04:21.509Z,63.31
2022-12-18T19:06:53.300Z,63.48
2022-12-18T19:09:27.596Z,63.60
2022-12-18T19:12:00.904Z,63.81
2022-12-18T19:14:32.985Z,63.68
2022-12-18T19:17:05.845Z,62.97
2022-12-18T19:19:38.403Z,63.19
2022-12-18T19:22:10.067Z,63.41
2022-12-18T19:24:41.893Z,63.50
2022-12-18T19:27:13.588Z,63.03
2022-12-18T19:29:45.101Z,62.88
2022-12-18T19:32:16.877Z,62.80
2022-12-18T19:34:48.457Z,63.90
2022-12-18T19:37:21.057Z,62.96
2022-12-18T19:39:52.827Z,63.54
2022-12-18T19:42:29.299Z,63.08
2022-12-18T19:45:03.850Z,64.92
2022-12-18T19:47:35.546Z,63.72
2022-12-18T19:50:14.621Z,62.90
2022-12-18T19:52:46.447Z,63.10
2022-12-18T19:55:18.230Z,62.86
2022-12-18T19:57:49.894Z,63.26
2022-12-18T20:00:21.494Z,62.39
2022-12-18T20:02:56.745Z,62.25
2022-12-18T20:05:34.319Z,62.21
2022-12-18T20:08:05.884Z,62.83
2022-12-18T20:11:20.746Z,63.77
2022-12-18T20:13:54.275Z,63.93
2022-12-18T20:16:25.913Z,64.24
2022-12-18T20:18:58.983Z,63.91
2022-12-18T20:21:30.948Z,62.81
2022-12-18T20:24:02.576Z,62.89
2022-12-18T20:26:34.313Z,62.21
2022-12-18T20:29:06.262Z,63.15
2022-12-18T20:31:37.852Z,63.49
2022-12-18T20:34:09.519Z,63.16
2022-12-18T20:36:42.124Z,62.93
2022-12-18T20:39:13.814Z,62.77
2022-12-18T20:41:46.060Z,62.92
2022-12-18T20:44:22.878Z,63.04
2022-12-18T20:46:57.692Z,63.18
2022-12-18T20:49:29.447Z,62.77
2022-12-18T20:52:00.981Z,62.52
2022-12-18T20:54:32.612Z,62.54
2022-12-18T20:57:04.913Z,62.56
2022-12-18T20:59:36.499Z,62.48
2022-12-18T21:02:13.363Z,62.83
2022-12-18T21:04:45.208Z,62.93
2022-12-18T21:07:16.785Z,64.82
2022-12-18T21:09:48.361Z,64.30
2022-12-18T21:12:20.234Z,65.12
2022-12-18T21:14:51.909Z,66.26
2022-12-18T21:17:23.475Z,64.90
2022-12-18T21:19:57.553Z,63.23
2022-12-18T21:22:29.882Z,62.89
2022-12-18T21:25:01.442Z,63.00
2022-12-18T21:27:33.331Z,63.09
2022-12-18T21:30:05.701Z,62.69
2022-12-18T21:32:37.327Z,62.55
2022-12-18T21:35:09.267Z,63.14
2022-12-18T21:37:40.909Z,63.46
2022-12-18T21:40:13.050Z,63.74
2022-12-18T21:42:44.858Z,63.23
2022-12-18T21:45:16.493Z,63.64
2022-12-18T21:47:48.117Z,63.17
2022-12-18T21:50:19.660Z,62.98
2022-12-18T21:52:51.222Z,62.77
2022-12-18T21:55:22.748Z,63.30
2022-12-18T21:57:54.324Z,62.99
2022-12-18T22:00:25.861Z,62.96
2022-12-18T22:03:01.203Z,62.72
2022-12-18T22:05:49.693Z,63.22
2022-12-18T22:08:43.052Z,63.88
2022-12-18T22:11:15.289Z,63.71
2022-12-18T22:13:48.928Z,63.26
2022-12-18T22:16:20.555Z,63.31
2022-12-18T22:18:52.264Z,62.86
2022-12-18T22:21:29.574Z,62.73
2022-12-18T22:24:15.005Z,63.43
2022-12-18T22:26:47.284Z,63.42
2022-12-18T22:29:24.160Z,63.39
2022-12-18T22:31:55.802Z,63.50
2022-12-18T22:34:27.370Z,63.75
2022-12-18T22:36:58.943Z,63.59
2022-12-18T22:39:31.799Z,63.00
2022-12-18T22:42:03.929Z,63.15
2022-12-18T22:44:35.654Z,63.09
2022-12-18T22:47:07.587Z,64.66
2022-12-18T22:49:39.456Z,64.39
2022-12-18T22:52:11.595Z,64.83
2022-12-18T22:54:43.156Z,64.12
2022-12-18T22:57:14.738Z,64.59
2022-12-18T22:59:46.340Z,64.57
2022-12-18T23:02:18.622Z,63.54
2022-12-18T23:04:50.410Z,64.02
2022-12-18T23:07:22.015Z,65.68
2022-12-18T23:09:58.416Z,65.31
2022-12-18T23:12:32.408Z,64.48
2022-12-18T23:15:06.541Z,63.60
2022-12-18T23:17:38.095Z,63.29
2022-12-18T23:20:11.726Z,63.38
2022-12-18T23:22:43.301Z,65.07
2022-12-18T23:25:14.831Z,63.85
2022-12-18T23:27:46.413Z,64.71
2022-12-18T23:30:18.203Z,63.63
2022-12-18T23:32:49.875Z,63.88
2022-12-18T23:35:21.409Z,64.52
2022-12-18T23:38:00.631Z,63.18
2022-12-18T23:40:32.369Z,62.99
2022-12-18T23:43:03.905Z,63.69
2022-12-18T23:45:38.248Z,63.01
2022-12-18T23:48:09.827Z,62.39
2022-12-18T23:50:41.372Z,63.16
2022-12-18T23:53:13.423Z,63.37
2022-12-18T23:55:45.667Z,62.74
2022-12-18T23:58:20.939Z,62.87
